sensor_id;sensor_type;location;lat;lon;timestamp;pressure;altitude;pressure_sealevel;temperature;humidity
27864;BME280;15980;51.092;13.916;2023-06-24T00:09:04;99335.00;;;15.65;100.00
27864;BME280;15980;51.092;13.916;2023-06-24T00:19:04;99342.03;;;15.79;100.00
27864;BME280;15980;51.092;13.916;2023-06-24T00:29:04;99325.47;;;15.63;100.00
27864;BME280;15980;51.092;13.916;2023-06-24T00:39:05;99319.47;;;15.77;100.00
27864;BME280;15980;51.092;13.916;2023-06-24T00:49:06;99303.34;;;15.63;100.00
27864;BME280;15980;51.092;13.916;2023-06-24T00:59:06;99299.84;;;15.66;100.00
27864;BME280;15980;51.092;13.916;2023-06-24T01:09:07;99304.31;;;15.70;100.00
27864;BME280;15980;51.092;13.916;2023-06-24T01:20:06;99304.34;;;15.90;100.00
27864;BME280;15980;51.092;13.916;2023-06-24T01:40:27;99307.75;;;16.18;100.00
27864;BME280;15980;51.092;13.916;2023-06-24T01:50:31;99319.06;;;16.29;100.00
27864;BME280;15980;51.092;13.916;2023-06-24T02:00:33;99317.00;;;16.26;100.00
27864;BME280;15980;51.092;13.916;2023-06-24T02:10:38;99323.34;;;16.46;100.00
27864;BME280;15980;51.092;13.916;2023-06-24T02:20:39;99312.13;;;16.39;100.00
27864;BME280;15980;51.092;13.916;2023-06-24T02:30:42;99312.44;;;16.33;100.00
27864;BME280;15980;51.092;13.916;2023-06-24T02:40:45;99305.13;;;16.45;100.00
27864;BME280;15980;51.092;13.916;2023-06-24T02:50:46;99313.19;;;16.50;100.00
27864;BME280;15980;51.092;13.916;2023-06-24T03:00:46;99317.81;;;16.46;100.00
27864;BME280;15980;51.092;13.916;2023-06-24T03:10:46;99324.41;;;16.57;100.00
27864;BME280;15980;51.092;13.916;2023-06-24T03:20:47;99326.44;;;16.60;100.00
27864;BME280;15980;51.092;13.916;2023-06-24T03:30:47;99324.78;;;16.55;100.00
27864;BME280;15980;51.092;13.916;2023-06-24T03:40:48;99325.44;;;16.68;100.00
27864;BME280;15980;51.092;13.916;2023-06-24T03:50:48;99339.41;;;16.56;100.00
27864;BME280;15980;51.092;13.916;2023-06-24T04:00:48;99359.25;;;16.58;100.00
27864;BME280;15980;51.092;13.916;2023-06-24T04:10:48;99379.75;;;16.53;100.00
27864;BME280;15980;51.092;13.916;2023-06-24T04:20:49;99378.94;;;16.53;100.00
27864;BME280;15980;51.092;13.916;2023-06-24T04:30:49;99396.09;;;16.43;100.00
27864;BME280;15980;51.092;13.916;2023-06-24T04:40:49;99398.94;;;16.46;100.00
27864;BME280;15980;51.092;13.916;2023-06-24T04:50:50;99419.94;;;16.47;100.00
27864;BME280;15980;51.092;13.916;2023-06-24T05:00:50;99416.13;;;16.36;100.00
27864;BME280;15980;51.092;13.916;2023-06-24T05:10:50;99413.00;;;16.38;100.00
27864;BME280;15980;51.092;13.916;2023-06-24T05:20:51;99425.03;;;16.45;100.00
27864;BME280;15980;51.092;13.916;2023-06-24T05:30:51;99429.19;;;16.36;100.00
27864;BME280;15980;51.092;13.916;2023-06-24T05:40:52;99427.25;;;16.90;100.00
27864;BME280;15980;51.092;13.916;2023-06-24T05:50:52;99425.13;;;16.84;100.00
27864;BME280;15980;51.092;13.916;2023-06-24T06:00:52;99432.53;;;16.60;100.00
27864;BME280;15980;51.092;13.916;2023-06-24T06:10:53;99435.41;;;17.22;100.00
27864;BME280;15980;51.092;13.916;2023-06-24T06:20:53;99449.44;;;17.10;100.00
27864;BME280;15980;51.092;13.916;2023-06-24T06:30:54;99450.44;;;16.82;100.00
27864;BME280;15980;51.092;13.916;2023-06-24T06:40:54;99451.75;;;16.88;100.00
27864;BME280;15980;51.092;13.916;2023-06-24T06:50:54;99449.34;;;16.68;100.00
27864;BME280;15980;51.092;13.916;2023-06-24T07:00:55;99455.47;;;16.77;100.00
27864;BME280;15980;51.092;13.916;2023-06-24T07:10:56;99438.19;;;16.48;100.00
27864;BME280;15980;51.092;13.916;2023-06-24T07:21:00;99455.06;;;16.43;100.00
27864;BME280;15980;51.092;13.916;2023-06-24T07:31:00;99454.69;;;16.60;100.00
27864;BME280;15980;51.092;13.916;2023-06-24T07:41:00;99470.28;;;16.84;100.00
27864;BME280;15980;51.092;13.916;2023-06-24T07:51:01;99470.59;;;16.99;100.00
27864;BME280;15980;51.092;13.916;2023-06-24T08:01:01;99467.59;;;16.53;100.00
27864;BME280;15980;51.092;13.916;2023-06-24T08:11:02;99471.72;;;16.78;100.00
27864;BME280;15980;51.092;13.916;2023-06-24T08:21:03;99482.34;;;16.92;100.00
27864;BME280;15980;51.092;13.916;2023-06-24T08:31:03;99485.53;;;18.17;100.00
27864;BME280;15980;51.092;13.916;2023-06-24T08:41:03;99480.06;;;19.33;94.69
27864;BME280;15980;51.092;13.916;2023-06-24T08:51:04;99492.81;;;18.25;97.49
27864;BME280;15980;51.092;13.916;2023-06-24T09:01:07;99506.47;;;17.88;97.17
27864;BME280;15980;51.092;13.916;2023-06-24T09:11:08;99507.09;;;19.03;93.99
27864;BME280;15980;51.092;13.916;2023-06-24T09:21:10;99505.25;;;19.48;88.52
27864;BME280;15980;51.092;13.916;2023-06-24T09:31:10;99507.03;;;18.99;87.36
27864;BME280;15980;51.092;13.916;2023-06-24T09:41:11;99517.41;;;18.72;82.55
27864;BME280;15980;51.092;13.916;2023-06-24T09:51:12;99520.38;;;19.46;79.38
27864;BME280;15980;51.092;13.916;2023-06-24T10:01:12;99512.50;;;18.92;78.68
27864;BME280;15980;51.092;13.916;2023-06-24T10:11:13;99517.09;;;19.07;74.90
27864;BME280;15980;51.092;13.916;2023-06-24T10:21:15;99517.41;;;19.62;70.89
27864;BME280;15980;51.092;13.916;2023-06-24T10:31:15;99519.34;;;19.95;69.06
27864;BME280;15980;51.092;13.916;2023-06-24T10:41:15;99516.69;;;19.69;67.10
27864;BME280;15980;51.092;13.916;2023-06-24T10:51:16;99516.22;;;19.63;68.45
27864;BME280;15980;51.092;13.916;2023-06-24T11:01:16;99493.22;;;19.70;67.54
27864;BME280;15980;51.092;13.916;2023-06-24T11:11:20;99487.69;;;19.73;70.10
27864;BME280;15980;51.092;13.916;2023-06-24T11:21:28;99485.06;;;19.91;67.35
27864;BME280;15980;51.092;13.916;2023-06-24T11:31:29;99479.28;;;20.07;63.30
27864;BME280;15980;51.092;13.916;2023-06-24T11:41:30;99470.03;;;20.40;61.24
27864;BME280;15980;51.092;13.916;2023-06-24T11:51:30;99464.94;;;20.56;62.55
27864;BME280;15980;51.092;13.916;2023-06-24T12:01:33;99454.13;;;20.48;61.90
27864;BME280;15980;51.092;13.916;2023-06-24T12:11:34;99451.06;;;20.16;62.66
27864;BME280;15980;51.092;13.916;2023-06-24T12:21:34;99442.41;;;20.83;60.98
27864;BME280;15980;51.092;13.916;2023-06-24T12:31:35;99440.44;;;20.94;60.61
27864;BME280;15980;51.092;13.916;2023-06-24T12:41:35;99441.28;;;21.05;60.63
27864;BME280;15980;51.092;13.916;2023-06-24T12:51:35;99431.56;;;21.68;59.84
27864;BME280;15980;51.092;13.916;2023-06-24T13:01:36;99432.34;;;21.83;57.29
27864;BME280;15980;51.092;13.916;2023-06-24T13:11:36;99426.00;;;22.29;56.62
27864;BME280;15980;51.092;13.916;2023-06-24T13:21:36;99419.16;;;22.62;52.59
27864;BME280;15980;51.092;13.916;2023-06-24T13:31:37;99415.50;;;22.79;51.21
27864;BME280;15980;51.092;13.916;2023-06-24T13:41:37;99418.31;;;22.82;52.13
27864;BME280;15980;51.092;13.916;2023-06-24T13:51:37;99414.63;;;22.96;51.62
27864;BME280;15980;51.092;13.916;2023-06-24T14:01:38;99404.56;;;23.16;48.71
27864;BME280;15980;51.092;13.916;2023-06-24T14:11:38;99397.75;;;23.21;48.53
27864;BME280;15980;51.092;13.916;2023-06-24T14:21:38;99395.84;;;22.97;47.18
27864;BME280;15980;51.092;13.916;2023-06-24T14:31:38;99386.97;;;23.16;48.41
27864;BME280;15980;51.092;13.916;2023-06-24T14:41:39;99373.75;;;23.20;47.26
27864;BME280;15980;51.092;13.916;2023-06-24T14:51:39;99361.16;;;23.53;47.23
27864;BME280;15980;51.092;13.916;2023-06-24T15:01:39;99356.63;;;23.70;47.49
27864;BME280;15980;51.092;13.916;2023-06-24T15:11:40;99349.59;;;23.99;46.40
27864;BME280;15980;51.092;13.916;2023-06-24T15:21:40;99341.50;;;24.05;45.73
27864;BME280;15980;51.092;13.916;2023-06-24T15:31:40;99328.97;;;24.17;45.69
27864;BME280;15980;51.092;13.916;2023-06-24T15:41:46;99335.16;;;24.42;45.63
27864;BME280;15980;51.092;13.916;2023-06-24T15:51:47;99331.56;;;24.41;44.18
27864;BME280;15980;51.092;13.916;2023-06-24T16:01:47;99317.09;;;24.77;44.05
27864;BME280;15980;51.092;13.916;2023-06-24T16:11:47;99300.25;;;25.34;45.26
27864;BME280;15980;51.092;13.916;2023-06-24T16:21:48;99311.38;;;25.15;43.70
27864;BME280;15980;51.092;13.916;2023-06-24T16:31:48;99310.31;;;25.05;44.65
27864;BME280;15980;51.092;13.916;2023-06-24T16:41:48;99304.16;;;25.14;43.64
27864;BME280;15980;51.092;13.916;2023-06-24T16:51:50;99305.69;;;25.22;45.27
27864;BME280;15980;51.092;13.916;2023-06-24T17:01:50;99316.00;;;25.28;42.58
27864;BME280;15980;51.092;13.916;2023-06-24T17:11:50;99321.38;;;25.19;43.59
27864;BME280;15980;51.092;13.916;2023-06-24T17:21:51;99307.53;;;25.32;43.88
27864;BME280;15980;51.092;13.916;2023-06-24T17:31:51;99301.88;;;25.05;44.05
27864;BME280;15980;51.092;13.916;2023-06-24T17:41:51;99303.84;;;24.78;44.71
27864;BME280;15980;51.092;13.916;2023-06-24T17:51:52;99307.66;;;24.60;45.92
27864;BME280;15980;51.092;13.916;2023-06-24T18:01:52;99302.56;;;24.52;46.23
27864;BME280;15980;51.092;13.916;2023-06-24T18:11:52;99297.38;;;24.12;47.37
27864;BME280;15980;51.092;13.916;2023-06-24T18:21:53;99295.44;;;23.65;48.79
27864;BME280;15980;51.092;13.916;2023-06-24T18:31:53;99287.97;;;22.88;52.32
27864;BME280;15980;51.092;13.916;2023-06-24T18:41:53;99277.41;;;22.30;55.32
27864;BME280;15980;51.092;13.916;2023-06-24T18:51:54;99290.28;;;21.74;57.21
27864;BME280;15980;51.092;13.916;2023-06-24T19:01:54;99293.47;;;21.23;60.33
27864;BME280;15980;51.092;13.916;2023-06-24T19:11:54;99296.16;;;20.84;61.01
27864;BME280;15980;51.092;13.916;2023-06-24T19:21:54;99287.66;;;20.41;64.44
27864;BME280;15980;51.092;13.916;2023-06-24T19:31:55;99292.50;;;19.93;68.05
27864;BME280;15980;51.092;13.916;2023-06-24T19:41:55;99291.38;;;19.50;70.89
27864;BME280;15980;51.092;13.916;2023-06-24T19:51:55;99294.56;;;19.07;72.94
27864;BME280;15980;51.092;13.916;2023-06-24T20:01:56;99294.97;;;18.69;75.17
27864;BME280;15980;51.092;13.916;2023-06-24T20:11:56;99287.72;;;18.31;76.61
27864;BME280;15980;51.092;13.916;2023-06-24T20:21:56;99292.47;;;18.00;77.50
27864;BME280;15980;51.092;13.916;2023-06-24T20:31:57;99288.41;;;17.68;78.42
27864;BME280;15980;51.092;13.916;2023-06-24T20:41:57;99288.47;;;17.48;79.33
27864;BME280;15980;51.092;13.916;2023-06-24T20:51:57;99288.84;;;17.24;80.79
27864;BME280;15980;51.092;13.916;2023-06-24T21:01:57;99280.59;;;17.05;80.74
27864;BME280;15980;51.092;13.916;2023-06-24T21:11:59;99278.44;;;16.94;82.07
27864;BME280;15980;51.092;13.916;2023-06-24T21:21:59;99282.78;;;16.73;83.90
27864;BME280;15980;51.092;13.916;2023-06-24T21:31:59;99287.59;;;16.56;83.36
27864;BME280;15980;51.092;13.916;2023-06-24T21:42:00;99282.78;;;16.34;84.28
27864;BME280;15980;51.092;13.916;2023-06-24T21:52:00;99278.31;;;16.29;85.17
27864;BME280;15980;51.092;13.916;2023-06-24T22:02:01;99287.50;;;16.14;84.96
27864;BME280;15980;51.092;13.916;2023-06-24T22:12:01;99289.78;;;15.93;86.53
27864;BME280;15980;51.092;13.916;2023-06-24T22:22:02;99282.34;;;15.78;86.36
27864;BME280;15980;51.092;13.916;2023-06-24T22:32:02;99291.56;;;15.66;85.58
27864;BME280;15980;51.092;13.916;2023-06-24T22:42:03;99289.06;;;15.61;86.83
27864;BME280;15980;51.092;13.916;2023-06-24T22:52:03;99282.44;;;15.50;86.90
27864;BME280;15980;51.092;13.916;2023-06-24T23:02:04;99288.16;;;15.41;87.67
27864;BME280;15980;51.092;13.916;2023-06-24T23:12:05;99284.25;;;15.26;88.37
27864;BME280;15980;51.092;13.916;2023-06-24T23:22:06;99279.34;;;15.20;89.32
27864;BME280;15980;51.092;13.916;2023-06-24T23:32:09;99279.56;;;15.15;89.79
27864;BME280;15980;51.092;13.916;2023-06-24T23:42:10;99272.09;;;14.99;92.07
27864;BME280;15980;51.092;13.916;2023-06-24T23:52:10;99279.56;;;14.83;92.16
